NCAR-RAP Real-Time Weather Data

Output produced by METARs form (30 January 2015  13:55 UTC)
found at http://weather.rap.ucar.edu/surface/
 
Conditions at: KSDF observed 30 January 2015  12:56 UTC
Temperature: 1.7°C (35°F)
Dewpoint: -3.9°C (25°F) [RH = 66%]
Pressure (altimeter): 30.39 inches Hg (1029.2 mb)
[Sea-level pressure: 1029.5 mb]
Winds: from the WNW (300 degrees) at 10 MPH (9 knots; 4.7 m/s)
Visibility: 10 or more miles (16+ km)
Ceiling: 5000 feet AGL
Clouds: few clouds at 3000 feet AGL
overcast cloud deck at 5000 feet AGL
Present Weather: -SN  (light snow)
KSDF 301256Z 30009KT 10SM -SN FEW030 OVC050 02/M04 A3039 RMK AO2 SNB54 SLP295 P0000 T00171039